Palm Beach Shores, Florida
Current Conditions -  °F | °C
As of 2:53 PM on Friday 24 Oct 2014 (Local Time) from KPBI Reporting Station
Broken Clouds Broken Clouds  
Wind Chill: 80°   Ceiling: 4200
Heat Index: 82°   Visibility: 10mi
Dew Point: 67°   Wind: 16mph
Humidity: 64%   Direction: 40°NE
Pressure: 29.85"   Gusts: 24mph
Location:  26.7789°N, 80.0745°W
Report Text: KPBI 241853Z 04014G21KT 10SM SCT029 BKN042 BKN049 27/19 A2985 RMK AO2 SLP106 T02670194
Loading
Personal Weather Stations






























Interactive Weather Map
Tropical Storm Tracking
New forecast layout! Learn more

10-Day Weather Forecast

Advertisements
Track Severe Weather on mobile